Etusivu
METAR-TAF:

METAR-TAF

Lentoasemat :

Trollhättan-Vänersborg, Ruotsi

Leveyspiiri: 58-19N, Pituuspiiri: 012-21E, korkeus merenpinnasta: 41 m

Tämänhetkinen sää

Tämä raportti tehtiin 35 minuuttia sitten, kello 12.20 UTC
Tuuli 10 kn lännestä/luoteesta, vaihdellen lännen/lounaan ja pohjoisen välillä
Lämpötila 5°C
Kosteus 26%
Ilmanpaine 1032 hPa
Näkyvyys 10 km tai enemmän

METAR: ESGT 291220Z AUTO 30010KT 240V350 9999 NCD 05/M13 Q1032

Aika: 14:55 (12:55 UTC)


TAF: puuttuu

Säähavainnot ja -ennusteet yli 4000 lentoasemalta (METAR- ja TAF-raportit).

Käytössä olevat sääasemat on merkitty karttaan keltaisilla ja punaisilla pisteillä.

Aseta hiiri pisteen päälle nähdäksesi sääaseman nimen.

Klikkaa sitten nähdäksesi säähavainnot ja -ennusteet.

Kartan vaihtaminen: klikkaa mustalla rastilla varustettuja vihreitä pisteitä, niin voit zoomata sisään; viivalla varustettua vihreää pistettä, niin voit zoomata ulos tai vihreitä nuolia, niin pääset viereisille kartoille.


METAR-TAF: